Tiempo atmosférico en la estación meteorológica de Jimena de la Frontera, Cádiz (50 m.)



Fecha
DESCASC
Temp. máxima en grados centígrados (hora)
DESCASC
Temp. mínima en grados centígrados (hora)
DESCASC
Temp. media en grados centígrados
DESCASC
Racha de viento máxima en m/sg (hora)
DESCASC
Velocidad máxima media en intervalos de 10 minutos(hora)
DESCASC
Precipitaciones diarias en mm
DESCASC
Precipitaciones de 00:00 a 06:00 en mm
DESCASC
Precipitaciones de 06:00 a 12:00 en mm
DESCASC
Precipitaciones de 12:00 a 18:00 en mm
DESCASC
Precipitaciones de 18:00 a 24:00 en mm
DESCASC
16-01-2020 18.7 (14:50) 0.9 (08:30) 9.8 4.72 (13:40) 2.5 (17:30) 0 0 0 0 0
15-01-2020 20.4 (15:10) 1.6 (08:30) 11 6.94 (16:00) 3.89 (16:00) 0 0 0 0 0
14-01-2020 17.2 (16:00) 1.1 (07:10) 9.2 8.61 (15:10) 4.72 (14:50) 0 0 0 0 0
13-01-2020 17.2 (15:30) 0.8 (08:30) 9 5.56 (15:50) 2.78 (16:20) 0 0 0 0 0
12-01-2020 17.6 (14:20) 2 (00:00) 9.8 5.83 (17:10) 3.61 (17:10) 0 0 0 0 0
11-01-2020 17.6 (14:00) 3.3 (00:00) 10.5 7.78 (17:30) 5.28 (16:50) 0 0 0 0 0
10-01-2020 16.5 (14:20) 3.2 (00:00) 9.9 8.89 (15:10) 5.28 (15:20) 0 0 0 0 0
09-01-2020 16.9 (15:00) 4 (00:00) 10.4 6.39 (14:10) 3.33 (15:30) 0 0 0 0 0
08-01-2020 18.5 (15:40) 0.9 (00:00) 9.7 5 (17:00) 3.33 (17:00) 0 0 0 0 0
07-01-2020 16.8 (14:50) 2.8 (00:00) 9.8 6.67 (13:00) 3.33 (15:10) 0 0 0 0 0
06-01-2020 17 (13:40) 5.2 (00:00) 11.1 8.61 (16:10) 4.72 (11:40) 0 0 0 0 0
05-01-2020 15.2 (12:50) 5.3 (00:00) 10.3 9.17 (13:40) 5 (01:40) 0 0 0 0 0
04-01-2020 16.5 (14:20) 5 (00:00) 10.8 10.28 (14:00) 6.11 (14:30) 0 0 0 0 0
03-01-2020 18.4 (15:00) 6.6 (00:00) 12.5 6.11 (16:40) 3.61 (16:50) 0 0 0 0 0
02-01-2020 17 (15:50) 4.9 (00:00) 11 5.28 (13:00) 2.78 (13:20) 0 0 0 0 0
01-01-2020 17 (14:50) 4.9 (00:00) 11 6.67 (13:40) 3.33 (13:20) 0 0 0 0 0
31-12-2019 15.8 (14:10) 3.3 (00:00) 9.6 10.28 (15:30) 6.11 (15:00) 0 0 0 0 0
30-12-2019 -- (--) -- (--) -- -- (--) -- (--) -- 0 0 0 --
29-12-2019 15.6 (12:50) 6 (00:00) 10.8 12.5 (13:40) 6.67 (12:40) 0 0 0 0 0
28-12-2019 16.8 (13:10) 5.8 (00:00) 11.3 13.33 (13:00) 7.5 (14:10) 0 0 0 0 0
27-12-2019 17.9 (12:40) 5.4 (00:00) 11.6 13.61 (14:20) 8.06 (15:50) 0 0 0 0 0
26-12-2019 21.3 (16:10) 4 (00:00) 12.6 2.22 (01:10) 1.39 (01:10) 0 0 0 0 0
25-12-2019 21.9 (17:00) 3.5 (00:00) 12.7 2.5 (05:30) 1.67 (22:30) 0 0 0 0 0
24-12-2019 21.7 (14:40) 3.6 (00:00) 12.7 9.17 (14:00) 5.56 (14:00) 0 0 0 0 0
23-12-2019 24.9 (15:30) 7.2 (00:00) 16 8.06 (15:40) 4.44 (15:50) 0 0 0 0 0
22-12-2019 19.8 (15:00) 9.6 (00:00) 14.7 8.61 (15:20) 4.72 (17:00) 0 0 0 0 0
21-12-2019 19.3 (11:20) 16.5 (00:00) 17.9 17.5 (03:40) 8.89 (04:50) 13.2 5.6 1 5.8 0.8
20-12-2019 18.9 (21:40) 16.8 (00:00) 17.8 23.06 (11:10) 9.72 (04:00) 21 3.2 4.8 8.2 4.8

Gráficas

Temp. máximas Temp. mínimas Temp. medias Precipitaciones Rachas de viento máximas Velocidades máximas media en intervalos de 10 minutos

Datos horarios

Fecha y hora oficial Temperatura (ºC) Velocidad del viento (km/h) Dirección del viento Racha (km/h) Dirección de racha Precipitación (mm) Presión (hPa) Tendencia (hPa) Humedad (%)
2020-01-18 23:00:00 15.8 15 Oeste 22 Oeste 0.2 -- -- 99
2020-01-18 22:00:00 14.6 3 Este 4 Este 1.2 -- -- 99
2020-01-18 21:00:00 14.4 0 Calma 5 Noroeste 0.6 -- -- 98
2020-01-18 20:00:00 14.5 2 Este 5 Nordeste 0.4 -- -- 97
2020-01-18 19:00:00 15 2 Este 12 Oeste 0.4 -- -- 94
2020-01-18 18:00:00 16 8 Oeste 24 Oeste 0 -- -- 86
2020-01-18 17:00:00 16.6 10 Oeste 25 Oeste 0 -- -- 84
2020-01-18 16:00:00 17.4 8 Oeste 23 Oeste 0 -- -- 79
2020-01-18 15:00:00 17.9 11 Oeste 20 Oeste 0 -- -- 76
2020-01-18 14:00:00 18.6 10 Oeste 23 Oeste 0 -- -- 73
2020-01-18 13:00:00 14.7 0 Calma 6 Sudoeste 0 -- -- 81
2020-01-18 12:00:00 11.5 2 Sudeste 4 Sur 0 -- -- 86
2020-01-18 11:00:00 9.5 0 Calma 4 Este 0 -- -- 96
2020-01-18 10:00:00 7.7 0 Calma 8 Este 0 -- -- 99
2020-01-18 09:00:00 6 3 Este 6 Este 0 -- -- 98
2020-01-18 08:00:00 6.3 0 Calma 6 Este 0 -- -- 98
2020-01-18 07:00:00 5.9 3 Sudeste 6 Este 0 -- -- 98
2020-01-18 06:00:00 6.1 3 Nordeste 6 Este 0 -- -- 98
2020-01-18 05:00:00 5.3 0 Calma 10 Nordeste 0 -- -- 98
2020-01-18 04:00:00 4.8 7 Este 10 Este 0 -- -- 98
2020-01-18 03:00:00 5.7 5 Este 10 Este 0 -- -- 98
2020-01-18 02:00:00 5.8 3 Este 10 Este 0 -- -- 97
2020-01-18 01:00:00 6.2 8 Nordeste 10 Nordeste 0 -- -- 97
2020-01-18 00:00:00 6.8 5 Este 9 Nordeste 0 -- -- 96
2020-01-17 23:00:00 7.6 3 Nordeste 8 Este 0 -- -- 95
2020-01-17 22:00:00 8.5 2 Nordeste 8 Nordeste 0 -- -- 94
2020-01-17 21:00:00 9.3 6 Nordeste 9 Nordeste 0 -- -- 93
2020-01-17 20:00:00 11.8 5 Este 10 Este 0 -- -- 90
2020-01-17 19:00:00 15.1 6 Oeste 16 Oeste 0 -- -- 82
2020-01-17 18:00:00 17.2 10 Oeste 23 Oeste 0 -- -- 75
2020-01-17 17:00:00 18.3 10 Oeste 23 Noroeste 0 -- -- 72
2020-01-17 16:00:00 19.4 13 Noroeste 26 Noroeste 0 -- -- 62
2020-01-17 15:00:00 19.4 14 Noroeste 24 Oeste 0 -- -- 63
2020-01-17 14:00:00 19.1 11 Oeste 19 Oeste 0 -- -- 69
2020-01-17 13:00:00 18.6 7 Este 13 Este 0 -- -- 68
2020-01-17 12:00:00 14.6 0 Calma 5 Oeste 0 -- -- 68
2020-01-17 11:00:00 10.8 0 Calma 6 Oeste 0 -- -- 82
2020-01-17 10:00:00 7.2 0 Calma 5 Este 0 -- -- 96
2020-01-17 09:00:00 4.7 0 Calma 5 Este 0 -- -- 99
2020-01-17 08:00:00 3.9 2 Norte 6 Este 0 -- -- 98
2020-01-17 07:00:00 3.1 0 Calma 6 Este 0 -- -- 98
2020-01-17 06:00:00 2.7 4 Este 6 Este 0 -- -- 98
2020-01-17 05:00:00 3 0 Calma 6 Nordeste 0 -- -- 97
2020-01-17 04:00:00 3.1 3 Este 6 Nordeste 0 -- -- 98
2020-01-17 03:00:00 3.5 0 Calma 8 Este 0 -- -- 97
2020-01-17 02:00:00 3.9 4 Norte 8 Este 0 -- -- 97
2020-01-17 01:00:00 4.4 4 Nordeste 6 Nordeste 0 -- -- 96
2020-01-17 00:00:00 5.2 4 Nordeste 6 Nordeste 0 -- -- 95
2020-01-16 23:00:00 5.9 3 Nordeste 7 Nordeste 0 -- -- 95
2020-01-16 22:00:00 6.6 2 Este 6 Nordeste 0 -- -- 92
2020-01-16 21:00:00 8.1 2 Nordeste 8 Nordeste 0 -- -- 90
2020-01-16 20:00:00 10.1 3 Nordeste 10 Este 0 -- -- 86
2020-01-16 19:00:00 13.5 2 Oeste 8 Sudeste 0 -- -- 80
2020-01-16 18:00:00 16.5 7 Sudeste 15 Sudeste 0 -- -- 69
2020-01-16 17:00:00 18.4 6 Sur 13 Sudeste 0 -- -- 51
2020-01-16 16:00:00 18.5 6 Este 16 Sudeste 0 -- -- 54
2020-01-16 15:00:00 18.6 7 Sudeste 13 Sur 0 -- -- 58
2020-01-16 14:00:00 18.2 5 Sudoeste 17 Sudeste 0 -- -- 61
2020-01-16 13:00:00 16.2 7 Sudoeste 10 Sudoeste 0 -- -- 64
2020-01-16 12:00:00 13.2 2 Oeste 4 Noroeste 0 -- -- 64
2020-01-16 11:00:00 9.2 0 Calma 4 Oeste 0 -- -- 75
2020-01-16 10:00:00 4.6 0 Calma 6 Nordeste 0 -- -- 91
2020-01-16 09:00:00 1.1 3 Este 6 Este 0 -- -- 97
2020-01-16 08:00:00 1.1 2 Este 7 Nordeste 0 -- -- 95
2020-01-16 07:00:00 1.8 4 Nordeste 7 Nordeste 0 -- -- 94
2020-01-16 06:00:00 2.5 4 Nordeste 7 Nordeste 0 -- -- 97
2020-01-16 05:00:00 1 5 Nordeste 7 Nordeste 0 -- -- 94
2020-01-16 04:00:00 1.7 2 Nordeste 7 Nordeste 0 -- -- 93
2020-01-16 03:00:00 2.2 3 Nordeste 8 Norte 0 -- -- 93
2020-01-16 02:00:00 2.5 2 Nordeste 8 Nordeste 0 -- -- 93
2020-01-16 01:00:00 2.8 3 Este 7 Nordeste 0 -- -- 91
2020-01-16 00:00:00 3.6 4 Nordeste 7 Nordeste 0 -- -- 91
2020-01-15 23:00:00 4.3 3 Nordeste 9 Norte 0 -- -- 88
2020-01-15 22:00:00 5.5 5 Nordeste 8 Nordeste 0 -- -- 85
2020-01-15 21:00:00 6.9 3 Norte 7 Este 0 -- -- 82
2020-01-15 20:00:00 9.1 3 Nordeste 9 Nordeste 0 -- -- 74
2020-01-15 19:00:00 11.8 6 Nordeste 10 Nordeste 0 -- -- 67
2020-01-15 18:00:00 17.6 5 Oeste 19 Sudoeste 0 -- -- 42
2020-01-15 17:00:00 18.8 11 Sudoeste 21 Oeste 0 -- -- 39
2020-01-15 16:00:00 20 14 Oeste 25 Oeste 0 -- -- 37
2020-01-15 15:00:00 20.3 7 Sur 14 Sudoeste 0 -- -- 41
2020-01-15 14:00:00 19.1 3 Sudeste 10 Sur 0 -- -- 48
2020-01-15 13:00:00 17.5 2 Sur 6 Sur 0 -- -- 56
2020-01-15 12:00:00 13.9 2 Noroeste 5 Sudoeste 0 -- -- 69
2020-01-15 11:00:00 10.2 0 Calma 3 Noroeste 0 -- -- 81
2020-01-15 10:00:00 5.4 0 Calma 5 Noroeste 0 -- -- 100
2020-01-15 09:00:00 2.2 4 Nordeste 7 Norte 0 -- -- 98
2020-01-15 08:00:00 1.8 2 Nordeste 5 Nordeste 0 -- -- 98
2020-01-15 07:00:00 2.2 2 Este 6 Este 0 -- -- 97
2020-01-15 06:00:00 2.7 0 Calma 5 Este 0 -- -- 97
2020-01-15 05:00:00 3.4 2 Nordeste 5 Este 0 -- -- 96
2020-01-15 04:00:00 3.9 0 Calma 6 Este 0 -- -- 96
2020-01-15 03:00:00 4.3 2 Nordeste 6 Nordeste 0 -- -- 95
2020-01-15 02:00:00 4.7 3 Este 6 Este 0 -- -- 95
2020-01-15 01:00:00 5.2 4 Nordeste 8 Este 0 -- -- 95
2020-01-15 00:00:00 5.9 0 Calma 7 Este 0 -- -- 93
2020-01-14 23:00:00 6.1 3 Este 6 Este 0 -- -- 91
2020-01-14 22:00:00 6.8 4 Nordeste 10 Nordeste 0 -- -- 90
2020-01-14 21:00:00 7.6 6 Nordeste 8 Nordeste 0 -- -- 86
2020-01-14 20:00:00 10.2 5 Este 12 Noroeste 0 -- -- 77
2020-01-14 19:00:00 12.9 5 Noroeste 12 Noroeste 0 -- -- 70
2020-01-14 18:00:00 15 5 Noroeste 19 Oeste 0 -- -- 60
2020-01-14 17:00:00 16.9 12 Oeste 22 Oeste 0 -- -- 55
2020-01-14 16:00:00 17.2 11 Noroeste 31 Noroeste 0 -- -- 52
2020-01-14 15:00:00 16.9 14 Noroeste 27 Oeste 0 -- -- 51
2020-01-14 14:00:00 15.8 12 Oeste 20 Sudoeste 0 -- -- 60
2020-01-14 13:00:00 14.6 4 Oeste 9 Sudoeste 0 -- -- 73
2020-01-14 12:00:00 10.4 3 Noroeste 8 Noroeste 0 -- -- 85
2020-01-14 11:00:00 7 0 Calma 3 Norte 0 -- -- 100
2020-01-14 10:00:00 3.4 0 Calma 6 Este 0 -- -- 100
2020-01-14 09:00:00 1.3 0 Calma 4 Este 0 -- -- 99
2020-01-14 08:00:00 1.2 0 Calma 5 Este 0 -- -- 99
2020-01-14 07:00:00 1.2 0 Calma 5 Este 0 -- -- 98
2020-01-14 06:00:00 1.7 0 Calma 5 Este 0 -- -- 99
2020-01-14 05:00:00 2 2 Este 5 Este 0 -- -- 99
2020-01-14 04:00:00 2.4 3 Norte 8 Nordeste 0 -- -- 98
2020-01-14 03:00:00 2.7 0 Calma 9 Nordeste 0 -- -- 98
2020-01-14 02:00:00 3.1 5 Este 8 Este 0 -- -- 97
2020-01-14 01:00:00 4 2 Nordeste 7 Nordeste 0 -- -- 97
2020-01-14 00:00:00 4.2 2 Nordeste 8 Nordeste 0 -- -- 96
2020-01-13 23:00:00 4.8 4 Nordeste 6 Nordeste 0 -- -- 95
2020-01-13 22:00:00 6.2 0 Calma 10 Nordeste 0 -- -- 93
2020-01-13 21:00:00 7.6 0 Calma 9 Nordeste 0 -- -- 91
2020-01-13 20:00:00 8.5 5 Nordeste 8 Nordeste 0 -- -- 89
2020-01-13 19:00:00 11.9 0 Calma 12 Sur 0 -- -- 82
2020-01-13 18:00:00 14.1 7 Sudeste 17 Sudeste 0 -- -- 73
2020-01-13 17:00:00 15.7 8 Sudeste 18 Sur 0 -- -- 66
2020-01-13 16:00:00 16.6 9 Sudeste 20 Sur 0 -- -- 63
2020-01-13 15:00:00 17 8 Sudoeste 14 Sur 0 -- -- 59
2020-01-13 14:00:00 16.3 7 Sur 16 Sur 0 -- -- 61
2020-01-13 13:00:00 15.9 6 Sur 12 Sur 0 -- -- 64
2020-01-13 12:00:00 12.9 3 Oeste 5 Oeste 0 -- -- 78
2020-01-13 11:00:00 9.3 0 Calma 3 Sudoeste 0 -- -- 89
2020-01-13 10:00:00 5 0 Calma 5 Este 0 -- -- 100
2020-01-13 09:00:00 0.9 0 Calma 6 Nordeste 0 -- -- 99
2020-01-13 08:00:00 0.9 5 Nordeste 6 Nordeste 0 -- -- 99
2020-01-13 07:00:00 1.1 2 Este 6 Nordeste 0 -- -- 98
2020-01-13 06:00:00 1.5 2 Este 5 Este 0 -- -- 98
2020-01-13 05:00:00 1.9 2 Este 5 Nordeste 0 -- -- 98
2020-01-13 04:00:00 2.3 0 Calma 6 Nordeste 0 -- -- 98
2020-01-13 03:00:00 2.9 2 Este 5 Este 0 -- -- 97
2020-01-13 02:00:00 3.3 3 Nordeste 5 Este 0 -- -- 97
2020-01-13 01:00:00 4 4 Este 5 Este 0 -- -- 96
2020-01-13 00:00:00 4.8 4 Nordeste 5 Nordeste 0 -- -- 96
2020-01-12 23:00:00 5.8 2 Nordeste 7 Norte 0 -- -- 95
2020-01-12 22:00:00 6.7 4 Nordeste 6 Nordeste 0 -- -- 94
2020-01-12 21:00:00 7.9 3 Nordeste 7 Norte 0 -- -- 92
2020-01-12 20:00:00 9.3 3 Nordeste 12 Nordeste 0 -- -- 88
2020-01-12 19:00:00 11.6 4 Este 12 Sur 0 -- -- 81
2020-01-12 18:00:00 14.7 6 Sur 21 Sur 0 -- -- 72
2020-01-12 17:00:00 16.3 12 Sudeste 20 Sur 0 -- -- 59
2020-01-12 16:00:00 17.6 6 Sur 15 Sudeste 0 -- -- 55
2020-01-12 15:00:00 17.5 6 Sudoeste 17 Sur 0 -- -- 57
2020-01-12 14:00:00 17.4 5 Sur 12 Sudeste 0 -- -- 59
2020-01-12 13:00:00 16.6 4 Sur 11 Sudeste 0 -- -- 63
2020-01-12 12:00:00 13.7 2 Oeste 7 Norte 0 -- -- 71
2020-01-12 11:00:00 9.6 4 Norte 7 Noroeste 0 -- -- 84
2020-01-12 10:00:00 5.4 0 Calma 7 Nordeste 0 -- -- 100
2020-01-12 09:00:00 2.2 2 Nordeste 5 Este 0 -- -- 99
2020-01-12 08:00:00 2.4 0 Calma 6 Nordeste 0 -- -- 98
2020-01-12 07:00:00 2.7 3 Nordeste 7 Nordeste 0 -- -- 98
2020-01-12 06:00:00 3.4 3 Nordeste 6 Nordeste 0 -- -- 98
2020-01-12 05:00:00 3.4 3 Este 6 Este 0 -- -- 97
2020-01-12 04:00:00 3.7 0 Calma 7 Nordeste 0 -- -- 96
2020-01-12 03:00:00 4 3 Nordeste 6 Nordeste 0 -- -- 95
2020-01-12 02:00:00 5 4 Norte 6 Norte 0 -- -- 95
2020-01-12 01:00:00 5.2 2 Nordeste 5 Nordeste 0 -- -- 95
2020-01-12 00:00:00 5.6 3 Nordeste 5 Nordeste 0 -- -- 94
2020-01-11 23:00:00 6.1 2 Norte 4 Noroeste 0 -- -- 92
2020-01-11 22:00:00 6.9 2 Norte 6 Norte 0 -- -- 88
2020-01-11 21:00:00 8.3 0 Calma 7 Noroeste 0 -- -- 85
2020-01-11 20:00:00 10.6 5 Noroeste 11 Este 0 -- -- 79
2020-01-11 19:00:00 12.8 7 Este 25 Sudeste 0 -- -- 71
2020-01-11 18:00:00 14.8 13 Sudeste 28 Sudeste 0 -- -- 62
2020-01-11 17:00:00 15.8 17 Sudeste 28 Sudeste 0 -- -- 59
2020-01-11 16:00:00 16.5 14 Sudeste 28 Sur 0 -- -- 56
2020-01-11 15:00:00 17.1 12 Sudeste 26 Sudeste 0 -- -- 54
2020-01-11 14:00:00 17.6 9 Sudeste 20 Sudeste 0 -- -- 57
2020-01-11 13:00:00 16.5 8 Sudeste 14 Sudeste 0 -- -- 63
2020-01-11 12:00:00 13.9 3 Oeste 8 Sur 0 -- -- 76
2020-01-11 11:00:00 9.9 0 Calma 5 Sur 0 -- -- 82
2020-01-11 10:00:00 6 0 Calma 3 Norte 0 -- -- 97
2020-01-11 09:00:00 4 3 Nordeste 6 Nordeste 0 -- -- 97
2020-01-11 08:00:00 4 2 Nordeste 5 Nordeste 0 -- -- 95
2020-01-11 07:00:00 4.4 2 Sudeste 5 Este 0 -- -- 92
2020-01-11 06:00:00 5.2 0 Calma 4 Este 0 -- -- 90
2020-01-11 05:00:00 4.8 0 Calma 6 Este 0 -- -- 90
2020-01-11 04:00:00 4.4 3 Nordeste 8 Nordeste 0 -- -- 90
2020-01-11 03:00:00 5.1 2 Oeste 9 Norte 0 -- -- 84
2020-01-11 02:00:00 4.9 3 Nordeste 8 Nordeste 0 -- -- 85
2020-01-11 01:00:00 5.5 5 Nordeste 11 Norte 0 -- -- 83
2020-01-11 00:00:00 5.9 6 Nordeste 9 Nordeste 0 -- -- 83
2020-01-10 23:00:00 7.9 2 Sudeste 15 Norte 0 -- -- 76
2020-01-10 22:00:00 9 4 Este 10 Norte 0 -- -- 72
2020-01-10 21:00:00 11.4 4 Norte 18 Noroeste 0 -- -- 68
2020-01-10 20:00:00 12.9 15 Norte 24 Norte 0 -- -- 66
2020-01-10 19:00:00 12 6 Noroeste 20 Noroeste 0 -- -- 74
2020-01-10 18:00:00 14.1 12 Noroeste 23 Noroeste 0 -- -- 72
2020-01-10 17:00:00 14.5 10 Noroeste 29 Oeste 0 -- -- 73
2020-01-10 16:00:00 15.2 16 Noroeste 32 Noroeste 0 -- -- 69
2020-01-10 15:00:00 15.7 17 Noroeste 29 Noroeste 0 -- -- 65
2020-01-10 14:00:00 16.1 15 Noroeste 31 Noroeste 0 -- -- 65
2020-01-10 13:00:00 16 17 Oeste 28 Oeste 0 -- -- 66
2020-01-10 12:00:00 15.2 12 Oeste 24 Oeste 0 -- -- 73
2020-01-10 11:00:00 11.8 0 Calma 4 Este 0 -- -- 88
2020-01-10 10:00:00 8.2 0 Calma 6 Nordeste 0 -- -- 100
2020-01-10 09:00:00 5.3 3 Nordeste 7 Nordeste 0 -- -- 100
2020-01-10 08:00:00 5.6 3 Oeste 6 Oeste 0 -- -- 100
2020-01-10 07:00:00 4.2 0 Calma 8 Este 0 -- -- 100
2020-01-10 06:00:00 3.4 4 Este 9 Nordeste 0 -- -- 99
2020-01-10 05:00:00 3.2 4 Nordeste 6 Este 0 -- -- 98
2020-01-10 04:00:00 4 0 Calma 8 Este 0 -- -- 98
2020-01-10 03:00:00 3.9 6 Nordeste 8 Nordeste 0 -- -- 98
2020-01-10 02:00:00 4.3 0 Calma 5 Este 0 -- -- 98
2020-01-10 01:00:00 4.5 2 Norte 8 Nordeste 0 -- -- 98
2020-01-10 00:00:00 4.9 3 Este 4 Este 0 -- -- 96
2020-01-09 23:00:00 5.9 0 Calma 6 Nordeste 0 -- -- 96
2020-01-09 22:00:00 6.7 3 Nordeste 7 Este 0 -- -- 94
2020-01-09 21:00:00 7.4 4 Este 6 Nordeste 0 -- -- 92
2020-01-09 20:00:00 9.3 2 Nordeste 9 Norte 0 -- -- 87
2020-01-09 19:00:00 11.5 2 Norte 9 Sudeste 0 -- -- 81
2020-01-09 18:00:00 14.5 6 Sudeste 11 Sudeste 0 -- -- 71
2020-01-09 17:00:00 15.4 6 Sudeste 16 Sudeste 0 -- -- 66
2020-01-09 16:00:00 15.9 9 Sudeste 21 Sudeste 0 -- -- 66
2020-01-09 15:00:00 16.9 9 Sudeste 23 Sur 0 -- -- 65
2020-01-09 14:00:00 16.3 7 Sudeste 18 Sudeste 0 -- -- 67
2020-01-09 13:00:00 14.1 2 Oeste 4 Oeste 0 -- -- 80
2020-01-09 12:00:00 10.7 0 Calma 4 Oeste 0 -- -- 91
2020-01-09 11:00:00 8.4 0 Calma 5 Noroeste 0 -- -- 100
2020-01-09 10:00:00 5.7 0 Calma 4 Nordeste 0 -- -- 100
2020-01-09 09:00:00 4 0 Calma 4 Nordeste 0 -- -- 99
2020-01-09 08:00:00 4.2 3 Nordeste 6 Nordeste 0 -- -- 99
2020-01-09 07:00:00 4.1 3 Este 6 Nordeste 0 -- -- 98
2020-01-09 06:00:00 5 3 Nordeste 5 Nordeste 0 -- -- 99
2020-01-09 05:00:00 5.1 3 Nordeste 6 Nordeste 0 -- -- 98
2020-01-09 04:00:00 5.5 3 Nordeste 8 Nordeste 0 -- -- 97
2020-01-09 03:00:00 6.3 3 Nordeste 9 Nordeste 0 -- -- 97
2020-01-09 02:00:00 6.9 4 Norte 11 Este 0 -- -- 96
2020-01-09 01:00:00 7.9 2 Norte 10 Este 0 -- -- 94
2020-01-09 00:00:00 9.2 0 Calma 5 Noroeste 0 -- -- 93
2020-01-08 23:00:00 9.5 0 Calma 4 Norte 0 -- -- 93
2020-01-08 22:00:00 9 0 Calma 7 Nordeste 0 -- -- 94
2020-01-08 21:00:00 8.2 4 Nordeste 9 Nordeste 0 -- -- 94
2020-01-08 20:00:00 9.5 4 Nordeste 6 Nordeste 0 -- -- 89
2020-01-08 19:00:00 12.7 3 Noroeste 15 Sudeste 0 -- -- 85
2020-01-08 18:00:00 15.3 6 Sudeste 18 Sudeste 0 -- -- 75
2020-01-08 17:00:00 17.4 12 Sudeste 18 Sudeste 0 -- -- 65
2020-01-08 16:00:00 18 6 Sudeste 15 Sudeste 0 -- -- 63
2020-01-08 15:00:00 18.1 6 Sur 12 Sudoeste 0 -- -- 63
2020-01-08 14:00:00 17.1 4 Sur 10 Sudoeste 0 -- -- 66
2020-01-08 13:00:00 15.2 2 Oeste 8 Oeste 0 -- -- 76
2020-01-08 12:00:00 11.6 2 Noroeste 4 Noroeste 0 -- -- 74
2020-01-08 11:00:00 7.7 0 Calma 3 Oeste 0 -- -- 87
2020-01-08 10:00:00 3.5 0 Calma 5 Nordeste 0 -- -- 100
2020-01-08 09:00:00 0.9 2 Este 5 Nordeste 0 -- -- 99
2020-01-08 08:00:00 1.3 2 Este 4 Nordeste 0 -- -- 98
2020-01-08 07:00:00 1.7 3 Este 4 Este 0 -- -- 98
2020-01-08 06:00:00 2.5 3 Nordeste 8 Nordeste 0 -- -- 99
2020-01-08 05:00:00 3 2 Nordeste 7 Nordeste 0 -- -- 98
2020-01-08 04:00:00 3.6 4 Este 5 Nordeste 0 -- -- 97
2020-01-08 03:00:00 4.9 0 Calma 5 Nordeste 0 -- -- 97
2020-01-08 02:00:00 6.6 0 Calma 3 Este 0 -- -- 97
2020-01-08 01:00:00 7.1 2 Noroeste 4 Norte 0 -- -- 99
2020-01-08 00:00:00 6.1 0 Calma 7 Nordeste 0 -- -- 98
2020-01-07 23:00:00 5.5 0 Calma 6 Nordeste 0 -- -- 96
2020-01-07 22:00:00 6.1 3 Nordeste 10 Nordeste 0 -- -- 94
2020-01-07 21:00:00 7.3 4 Nordeste 8 Nordeste 0 -- -- 94
2020-01-07 20:00:00 8.7 3 Nordeste 7 Nordeste 0 -- -- 91
2020-01-07 19:00:00 12 0 Calma 7 Sur 0 -- -- 82
2020-01-07 18:00:00 14.6 5 Sudeste 17 Sur 0 -- -- 75
2020-01-07 17:00:00 16.2 4 Sudeste 17 Sur 0 -- -- 70
2020-01-07 16:00:00 16.6 7 Sur 22 Sudeste 0 -- -- 68
2020-01-07 15:00:00 16.8 9 Sudeste 21 Sudeste 0 -- -- 67
2020-01-07 14:00:00 16.3 9 Sudeste 22 Sudeste 0 -- -- 69
2020-01-07 13:00:00 15.8 11 Sudeste 24 Sudeste 0 -- -- 70
2020-01-07 12:00:00 12.6 4 Noroeste 7 Noroeste 0 -- -- 81
2020-01-07 11:00:00 9.5 0 Calma 4 Oeste 0 -- -- 83
2020-01-07 10:00:00 6 0 Calma 12 Noroeste 0 -- -- 100
2020-01-07 09:00:00 3 2 Nordeste 8 Norte 0 -- -- 99
2020-01-07 08:00:00 3.2 4 Nordeste 7 Este 0 -- -- 99
2020-01-07 07:00:00 3.4 2 Nordeste 6 Norte 0 -- -- 98
2020-01-07 06:00:00 3.7 0 Calma 8 Nordeste 0 -- -- 98
2020-01-07 05:00:00 3.7 3 Este 4 Este 0 -- -- 98
2020-01-07 04:00:00 4.3 2 Nordeste 6 Nordeste 0 -- -- 98
2020-01-07 03:00:00 4.4 2 Nordeste 6 Este 0 -- -- 98
2020-01-07 02:00:00 4.7 2 Nordeste 5 Nordeste 0 -- -- 97
2020-01-07 01:00:00 4.6 2 Nordeste 5 Nordeste 0 -- -- 97
2020-01-07 00:00:00 5.6 0 Calma 7 Nordeste 0 -- -- 96
2020-01-06 23:00:00 6.3 3 Nordeste 6 Norte 0 -- -- 95
2020-01-06 22:00:00 7.2 3 Nordeste 8 Nordeste 0 -- -- 93
2020-01-06 21:00:00 8.4 3 Nordeste 9 Nordeste 0 -- -- 90
2020-01-06 20:00:00 10.4 4 Nordeste 11 Sudeste 0 -- -- 85
2020-01-06 19:00:00 12.7 6 Sudeste 23 Este 0 -- -- 81
2020-01-06 18:00:00 14 12 Sudeste 23 Este 0 -- -- 73
2020-01-06 17:00:00 15.2 13 Sudeste 31 Sudeste 0 -- -- 67
2020-01-06 16:00:00 16 14 Sudeste 27 Sudeste 0 -- -- 64
2020-01-06 15:00:00 16.6 15 Sudeste 25 Sur 0 -- -- 63
2020-01-06 14:00:00 17 11 Sudeste 23 Este 0 -- -- 58
2020-01-06 13:00:00 16.5 12 Sudeste 25 Este 0 -- -- 59
2020-01-06 12:00:00 15.6 15 Este 29 Sudeste 0 -- -- 64
2020-01-06 11:00:00 11.8 5 Noroeste 9 Noroeste 0 -- -- 80
2020-01-06 10:00:00 9.3 2 Noroeste 4 Noroeste 0 -- -- 88